Time;durP1;ratioP1;P1;durP2;ratioP2;P2;SDS_P1;SDS_P2;PMS_P1;PMS_P2;Temp;Humidity;BMP_temperature;BMP_pressure;BME280_temperature;BME280_humidity;BME280_pressure;Samples;Min_cycle;Max_cycle;Signal;HPM_P1;HPM_P2
2022/06/13 00:01:35;;;;;;;2.85;1.00;;;;;;;;;;20920091;28;20087;-63
2022/06/13 00:11:37;;;;;;;6.65;1.40;;;;;;;;;;20918526;28;20412;-62
2022/06/13 00:21:39;;;;;;;4.95;2.30;;;29.60;25.80;;;;;;20918525;28;20075;-58
2022/06/13 00:31:59;;;;;;;5.05;1.60;;;29.60;25.60;;;;;;20917132;28;20060;-63
2022/06/13 00:42:01;;;;;;;5.35;1.30;;;29.40;26.10;;;;;;20915850;28;20136;-61
2022/06/13 00:52:27;;;;;;;2.35;0.95;;;29.10;25.30;;;;;;20915494;28;20485;-62
2022/06/13 01:02:29;;;;;;;5.35;1.02;;;29.10;23.60;;;;;;20914097;28;20053;-58
2022/06/13 01:12:32;;;;;;;3.70;1.00;;;29.00;23.00;;;;;;20914487;28;20077;-60
2022/06/13 01:22:56;;;;;;;6.85;1.20;;;29.00;22.70;;;;;;20913470;28;20106;-60
2022/06/13 01:33:13;;;;;;;3.55;1.20;;;28.90;23.20;;;;;;20913542;28;20398;-60
2022/06/13 01:43:49;;;;;;;4.85;1.15;;;28.70;23.40;;;;;;20912046;28;20510;-62
2022/06/13 01:54:16;;;;;;;3.92;1.00;;;28.60;23.30;;;;;;20912625;28;20128;-62
2022/06/13 02:04:31;;;;;;;2.97;1.30;;;28.50;23.80;;;;;;20911049;28;20064;-60
2022/06/13 02:14:45;;;;;;;2.95;1.20;;;28.30;24.40;;;;;;20910944;28;20049;-58
2022/06/13 02:25:06;;;;;;;5.18;1.30;;;28.20;24.70;;;;;;20910196;28;20056;-61
2022/06/13 02:35:22;;;;;;;4.65;1.40;;;28.10;24.30;;;;;;20910744;28;20045;-60
2022/06/13 02:45:43;;;;;;;6.68;1.40;;;27.90;24.20;;;;;;20910797;28;20147;-61
2022/06/13 02:56:06;;;;;;;;;;;28.00;24.10;;;;;;20924886;28;20060;-62
2022/06/13 03:06:26;;;;;;;2.53;1.30;;;27.80;24.00;;;;;;20923903;28;19920;-62
2022/06/13 03:17:02;;;;;;;6.97;1.85;;;27.80;23.80;;;;;;20923023;28;20041;-61
2022/06/13 03:27:23;;;;;;;2.28;1.33;;;27.90;23.50;;;;;;20922141;28;20390;-62
2022/06/13 03:37:40;;;;;;;2.70;1.45;;;27.80;23.90;;;;;;20921708;28;20045;-62
2022/06/13 03:47:51;;;;;;;4.68;1.60;;;27.80;24.10;;;;;;20919949;28;20056;-63
2022/06/13 03:58:12;;;;;;;5.33;1.40;;;27.60;24.30;;;;;;20919436;28;20053;-61
2022/06/13 04:08:16;;;;;;;6.57;1.83;;;27.60;24.60;;;;;;20919738;28;20577;-59
2022/06/13 04:18:53;;;;;;;5.68;1.73;;;27.40;25.50;;;;;;20918487;28;20053;-60
2022/06/13 04:29:19;;;;;;;6.25;2.00;;;27.30;26.60;;;;;;20917368;28;20086;-60
2022/06/13 04:39:28;;;;;;;5.35;2.15;;;27.10;27.40;;;;;;20916547;28;20057;-61
2022/06/13 04:49:42;;;;;;;3.40;1.90;;;27.10;27.80;;;;;;20916500;28;20048;-59
2022/06/13 04:59:45;;;;;;;8.93;2.20;;;27.10;28.30;;;;;;20915194;28;20476;-60
2022/06/13 05:09:59;;;;;;;8.98;3.33;;;27.00;28.40;;;;;;20914629;28;20135;-60
2022/06/13 05:20:23;;;;;;;7.57;2.08;;;26.90;28.30;;;;;;20913283;28;20045;-61
2022/06/13 05:30:26;;;;;;;8.45;2.60;;;26.80;28.90;;;;;;20913074;28;20048;-61
2022/06/13 05:40:28;;;;;;;12.20;2.80;;;26.70;29.50;;;;;;20913482;28;20055;-60
2022/06/13 05:50:33;;;;;;;10.85;2.40;;;26.60;30.30;;;;;;20913092;28;20460;-61
2022/06/13 06:00:47;;;;;;;11.55;3.15;;;26.50;30.90;;;;;;20912023;28;20068;-62
2022/06/13 06:10:51;;;;;;;8.30;2.30;;;26.10;31.20;;;;;;20909298;28;21171;-59
2022/06/13 06:20:53;;;;;;;8.60;2.20;;;25.80;32.20;;;;;;20912508;28;20057;-59
2022/06/13 06:30:57;;;;;;;8.32;2.28;;;25.80;32.20;;;;;;20926263;28;20464;-61
2022/06/13 06:40:59;;;;;;;12.73;2.60;;;25.90;32.60;;;;;;20925480;28;20079;-61
2022/06/13 06:51:04;;;;;;;9.20;3.40;;;26.00;33.20;;;;;;20925825;28;20408;-63
2022/06/13 07:01:08;;;;;;;10.93;2.97;;;26.30;32.60;;;;;;20924002;28;20049;-58
2022/06/13 07:21:45;;;;;;;7.47;2.65;;;27.30;30.80;;;;;;20923318;28;20401;-61
2022/06/13 07:31:58;;;;;;;5.93;2.63;;;27.90;28.20;;;;;;20921348;28;20049;-59
2022/06/13 07:42:01;;;;;;;6.35;2.30;;;28.40;27.20;;;;;;20920898;28;20059;-60
2022/06/13 07:52:03;;;;;;;7.60;2.00;;;28.70;27.60;;;;;;20920284;28;20248;-60
2022/06/13 08:02:04;;;;;;;10.20;2.40;;;29.10;25.70;;;;;;20919181;28;20064;-61
2022/06/13 08:12:07;;;;;;;5.72;1.95;;;29.50;25.80;;;;;;20919783;28;20103;-61
2022/06/13 08:22:09;;;;;;;5.85;2.05;;;29.90;24.60;;;;;;20917877;28;20045;-60
2022/06/13 08:32:11;;;;;;;4.47;1.50;;;30.00;25.00;;;;;;20916485;28;20056;-61
2022/06/13 08:42:22;;;;;;;9.60;1.92;;;30.30;23.90;;;;;;20916177;28;20167;-61
2022/06/13 08:52:30;;;;;;;4.40;1.67;;;30.60;24.70;;;;;;20915340;28;20500;-59
2022/06/13 09:02:55;;;;;;;5.75;1.85;;;30.60;23.70;;;;;;20915125;28;20508;-61
2022/06/13 09:13:12;;;;;;;11.82;2.00;;;30.90;23.50;;;;;;20912768;28;20049;-58
2022/06/13 09:23:34;;;;;;;7.70;2.00;;;31.10;23.60;;;;;;20912177;28;20084;-56
2022/06/13 09:33:43;;;;;;;7.15;2.40;;;31.20;24.30;;;;;;20914037;28;20404;-54
2022/06/13 09:43:50;;;;;;;7.78;2.63;;;31.50;23.70;;;;;;20888429;28;20556;-55
2022/06/13 09:54:02;;;;;;;3.63;1.40;;;31.50;23.30;;;;;;20829855;28;20080;-57
2022/06/13 10:04:08;;;;;;;8.63;1.55;;;31.90;22.10;;;;;;20902439;28;20061;-55
2022/06/13 10:14:49;;;;;;;5.05;1.60;;;32.00;21.90;;;;;;20927646;28;20047;-56
2022/06/13 10:25:02;;;;;;;11.60;2.00;;;32.40;21.30;;;;;;20918758;28;20385;-56
2022/06/13 10:35:21;;;;;;;5.32;1.83;;;32.60;21.20;;;;;;20848963;28;20061;-55
2022/06/13 10:45:24;;;;;;;4.88;1.73;;;32.50;21.00;;;;;;20888280;28;20049;-56
2022/06/13 10:55:30;;;;;;;6.93;1.55;;;32.70;20.00;;;;;;20869546;28;20041;-58
2022/06/13 11:05:49;;;;;;;4.38;1.50;;;33.10;20.00;;;;;;20922385;28;20447;-55
2022/06/13 11:36:36;;;;;;;6.88;1.80;;;33.60;18.80;;;;;;20920878;28;20128;-55
2022/06/13 11:46:51;;;;;;;5.20;2.03;;;33.40;19.30;;;;;;20920373;28;20080;-55
2022/06/13 11:57:17;;;;;;;6.80;1.73;;;33.90;18.90;;;;;;20919327;28;20060;-55
2022/06/13 12:07:30;;;;;;;6.10;2.20;;;34.10;18.10;;;;;;20916363;28;20064;-54
2022/06/13 12:17:38;;;;;;;8.00;2.05;;;34.30;18.40;;;;;;20916335;28;20390;-56
2022/06/13 12:27:57;;;;;;;11.90;2.17;;;34.60;17.90;;;;;;20915733;28;20049;-59
2022/06/13 12:38:08;;;;;;;8.00;2.03;;;35.00;18.10;;;;;;20916404;28;20056;-59
2022/06/13 12:48:28;;;;;;;5.85;2.13;;;35.00;17.80;;;;;;20916211;28;20071;-58
2022/06/13 12:58:35;;;;;;;7.93;1.90;;;35.10;17.90;;;;;;20914915;28;20096;-62
2022/06/13 13:08:55;;;;;;;11.75;2.22;;;35.10;17.80;;;;;;20914475;28;20085;-59
2022/06/13 13:19:20;;;;;;;8.27;3.38;;;35.50;17.30;;;;;;20914460;28;20052;-63
2022/06/13 13:29:45;;;;;;;10.93;2.33;;;35.60;17.80;;;;;;20911044;28;20056;-62
2022/06/13 13:40:13;;;;;;;8.32;2.08;;;35.90;17.20;;;;;;20912692;28;20049;-64
2022/06/13 13:50:20;;;;;;;11.30;2.60;;;36.20;17.10;;;;;;20912228;28;20052;-62
2022/06/13 14:00:52;;;;;;;10.40;3.28;;;36.20;17.20;;;;;;20910754;28;20057;-63
2022/06/13 14:10:57;;;;;;;8.90;2.90;;;36.60;17.10;;;;;;20910832;28;20052;-65
2022/06/13 14:21:11;;;;;;;7.40;2.80;;;36.50;17.10;;;;;;20911216;28;20067;-61
2022/06/13 14:31:14;;;;;;;12.98;3.22;;;36.60;17.70;;;;;;20910081;28;20533;-61
2022/06/13 14:41:17;;;;;;;11.70;3.67;;;36.70;17.20;;;;;;20909134;28;20141;-57
2022/06/13 14:51:50;;;;;;;10.55;2.70;;;36.90;17.00;;;;;;20926115;28;20057;-60
2022/06/13 15:02:11;;;;;;;14.65;4.25;;;37.00;16.70;;;;;;20923695;28;20053;-62
2022/06/13 15:12:25;;;;;;;6.88;2.70;;;37.50;16.80;;;;;;20923311;28;20045;-59
2022/06/13 15:22:32;;;;;;;15.15;3.55;;;37.70;16.60;;;;;;20922280;28;20131;-61
2022/06/13 15:32:37;;;;;;;12.38;3.45;;;37.60;16.70;;;;;;20922673;28;20394;-58
2022/06/13 15:42:40;;;;;;;14.18;3.08;;;37.80;16.40;;;;;;20922681;28;20102;-61
2022/06/13 15:52:44;;;;;;;15.57;4.78;;;37.60;16.50;;;;;;20920418;28;20077;-56
2022/06/13 16:02:47;;;;;;;21.83;5.13;;;37.90;17.10;;;;;;20919441;28;20049;-56
2022/06/13 16:12:53;;;;;;;14.07;4.05;;;37.90;16.10;;;;;;20916810;28;20095;-61
2022/06/13 16:23:02;;;;;;;18.52;5.05;;;37.90;16.20;;;;;;20916823;28;20049;-69
2022/06/13 16:33:12;;;;;;;23.63;5.25;;;37.90;15.90;;;;;;20916687;28;20082;-64
2022/06/13 16:43:33;;;;;;;16.95;3.58;;;37.80;16.40;;;;;;20917699;28;20053;-61
2022/06/13 16:53:36;;;;;;;22.83;5.18;;;38.10;16.30;;;;;;20919337;28;20041;-60
2022/06/13 17:03:59;;;;;;;17.65;5.05;;;37.80;16.30;;;;;;20918573;28;20057;-60
2022/06/13 17:14:01;;;;;;;18.90;6.20;;;37.60;16.60;;;;;;20914445;28;20052;-62
2022/06/13 17:24:04;;;;;;;15.85;4.95;;;37.30;16.80;;;;;;20913504;28;20092;-62
2022/06/13 17:34:08;;;;;;;14.55;6.22;;;37.10;17.00;;;;;;20911607;28;20045;-61
2022/06/13 17:44:10;;;;;;;17.85;4.78;;;36.70;17.30;;;;;;20912506;28;20061;-61
2022/06/13 17:54:13;;;;;;;19.23;4.57;;;36.60;17.20;;;;;;20910268;28;20061;-61
2022/06/13 18:04:18;;;;;;;18.40;4.95;;;36.40;17.70;;;;;;20911082;28;20144;-63
2022/06/13 18:14:19;;;;;;;19.63;5.57;;;36.20;17.80;;;;;;20910776;28;20056;-61
2022/06/13 18:24:21;;;;;;;19.65;4.72;;;36.00;18.20;;;;;;20924293;28;20065;-65
2022/06/13 18:34:23;;;;;;;21.17;5.18;;;35.90;18.20;;;;;;20926231;28;20049;-62
2022/06/13 18:44:24;;;;;;;19.17;4.97;;;35.90;18.30;;;;;;20926816;28;20104;-63
2022/06/13 18:54:26;;;;;;;16.15;4.47;;;35.70;18.80;;;;;;20925098;28;20045;-61
2022/06/13 19:04:28;;;;;;;13.70;4.80;;;;;;;;;;20924175;28;20049;-63
2022/06/13 19:14:30;;;;;;;19.73;6.07;;;;;;;;;;20923898;28;20382;-63
2022/06/13 19:24:33;;;;;;;17.13;4.93;;;;;;;;;;20923017;28;20056;-64
2022/06/13 19:34:37;;;;;;;17.10;6.63;;;;;;;;;;20922548;28;20456;-64
2022/06/13 19:44:39;;;;;;;21.73;5.25;;;;;;;;;;20921090;28;20122;-62
2022/06/13 19:54:42;;;;;;;20.25;5.72;;;;;;;;;;20919837;28;20118;-63
2022/06/13 20:04:44;;;;;;;17.17;6.18;;;;;;;;;;20918095;28;20057;-62
2022/06/13 20:15:04;;;;;;;21.55;7.03;;;;;;;;;;20918407;28;20127;-64
2022/06/13 20:25:08;;;;;;;18.00;6.93;;;;;;;;;;20917110;28;20080;-67
2022/06/13 20:35:10;;;;;;;15.77;6.22;;;;;;;;;;20916378;28;20080;-64
2022/06/13 20:45:14;;;;;;;18.48;5.28;;;;;;;;;;20914751;28;20531;-65
2022/06/13 20:55:16;;;;;;;16.33;5.18;;;;;;;;;;20915101;28;20079;-63
2022/06/13 21:05:21;;;;;;;20.30;5.90;;;;;;;;;;20913677;28;20053;-63
2022/06/13 21:15:29;;;;;;;19.70;6.63;;;;;;;;;;20913894;28;20056;-63
2022/06/13 21:25:32;;;;;;;19.60;6.57;;;;;;;;;;20914645;28;20052;-63
2022/06/13 21:35:35;;;;;;;19.95;6.75;;;;;;;;;;20910746;28;20095;-63
2022/06/13 21:45:37;;;;;;;16.67;7.55;;;;;;;;;;20912569;28;20055;-62
2022/06/13 21:55:40;;;;;;;18.27;9.77;;;;;;;;;;20911869;28;20052;-63
2022/06/13 22:05:42;;;;;;;22.67;7.40;;;;;;;;;;20911411;28;20525;-64
2022/06/13 22:15:44;;;;;;;24.23;7.13;;;;;;;;;;20911169;28;20056;-63
2022/06/13 22:25:48;;;;;;;16.92;6.25;;;;;;;;;;20911919;28;20045;-63
2022/06/13 22:36:08;;;;;;;16.10;5.90;;;;;;;;;;20910936;28;20072;-60
2022/06/13 22:46:10;;;;;;;18.98;6.50;;;;;;;;;;20910370;28;20064;-61
2022/06/13 22:56:13;;;;;;;24.73;13.95;;;;;;;;;;20910813;28;20094;-61
2022/06/13 23:06:16;;;;;;;22.80;7.40;;;;;;;;;;20915959;28;20057;-62
2022/06/13 23:16:19;;;;;;;19.30;6.22;;;;;;;;;;20923922;28;20056;-61
2022/06/13 23:26:21;;;;;;;18.48;6.78;;;;;;;;;;20922613;28;20053;-62
2022/06/13 23:36:24;;;;;;;34.97;21.13;;;;;;;;;;20923398;28;20041;-62
2022/06/13 23:46:26;;;;;;;20.73;10.10;;;;;;;;;;20921073;28;20071;-61
2022/06/13 23:56:28;;;;;;;22.60;9.57;;;;;;;;;;20920803;28;20045;-62
